Wednesday, April 01, 2015
08:05 UTC
  |  Log In   |  Register Free
Airport Search:

Mount Sterling-Montgomery County Airport
(KIOB)

Mount Sterling-Montgomery County Airport Diagram
No Airport Diagram Available

FAA data valid effective March 05, 2015 - April 30, 2015 (unless otherwise noted).

 
 
 
 
 
 
 
 
 
 
 
 
 
 

Current Aviation Weather for Mount Sterling-Montgomery County Airport (KIOB)

The most recent METAR observation for KIOB was updated at: 0710
METAR Summary (Translated METAR)
KIOB
010655Z AUTO 05003KT 10SM CLR 04/02 A3005 RMK AO2
KSYM
010650Z AUTO 07004KT 10SM CLR 06/00 A3006 RMK AO2
(20.8 nm NE from KIOB)
KLEX
010654Z 08007KT 10SM CLR 06/02 A3004 RMK AO2 SLP169 T00560022
(29.6 nm SW from KIOB)
TAF Summary (Translated TAF)
KSYM
(20.8 nm NE from KIOB)
010520Z 0106/0206 VRB03KT P6SM SKC
KLEX
(29.6 nm SW from KIOB)
010520Z 0106/0206 04006KT P6SM SKC FM011400 12005KT P6SM SKC
  Airport Weather Conditions for KIOB

 Current Weather at IOB
41° F
Fair
Northeast winds at 3.5 mph
IOB NOAA Radar

Pressure: 30.05 in
Humidity: 81%
Wind: Northeast at 3.5 MPH (3 KT)
Dew Point: 35.6°F
Visibility: 10.00 mi


Airport Weather Forecast for KIOB

Translated METAR and TAF for KIOB
Translated METAR for KIOB (0804 UTC 01 April 2015)
found at http://aviationweather.gov/adds/metars/
 
METAR text: KIOB 010755Z AUTO 04004KT 10SM CLR 03/01 A3006 RMK AO2
Conditions at: KIOB (MOUNT STERLING , KY, US) observed 0755 UTC 01 April 2015
Temperature: 3.0°C (37°F)
Dewpoint: 1.0°C (34°F) [RH = 87%]
Pressure (altimeter): 30.06 inches Hg (1018.0 mb)
Winds: from the NE (40 degrees) at 5 MPH (4 knots; 2.1 m/s)
Visibility: 10 or more miles (16+ km)
Ceiling: at least 12,000 feet AGL
Clouds: sky clear below 12,000 feet AGL
Weather: automated observation with no human augmentation;
there may or may not be significant weather present at this time
Translated TAF for KIOB

There is no translated TAF available for this airport

Find All Airport Services Find A Hotel Find A Rental Car Find A Golf Course Find A Restaurant $100 Hamburger



FBO's on the Field
FBO Company Facility Photos Services Transportation Aviation Fuel Prices: Prices include tax
Catering Weather Repair Courtesy Rental Type 100LL JetA JetA+ MOGAS 8087
 
Kentucky Airmotive Inc

This FBO has not yet been rated
FS:Shell
Last Updated: Mar-23
Login to update fuel prices
SS:
Contact Kentucky Airmotive IncMore FBO Information
 
Add another FBO Facility Photos Catering Weather Repair Courtesy Rental Type 100LL JetA JetA+ MOGAS 8087
Services Transportation Aviation Fuel Prices: Prices include tax


model-print
model-print
model-print
model-print